Time;durP1;ratioP1;P1;durP2;ratioP2;P2;SDS_P1;SDS_P2;PMS_P1;PMS_P2;Temp;Humidity;BMP_temperature;BMP_pressure;BME280_temperature;BME280_humidity;BME280_pressure;Samples;Min_cycle;Max_cycle;Signal;HPM_P1;HPM_P2
2024/03/25 00:01:12;;;;;;;3.78;1.50;;;;;;;7.29;100.00;99547.88;5121875;27;20062;-71
2024/03/25 00:03:38;;;;;;;6.15;1.33;;;;;;;7.26;100.00;99551.50;5099969;27;20127;-70
2024/03/25 00:06:07;;;;;;;5.45;1.55;;;;;;;7.24;100.00;99545.47;5102359;27;20523;-70
2024/03/25 00:08:33;;;;;;;6.13;1.67;;;;;;;7.23;100.00;99549.06;5122670;27;20126;-70
2024/03/25 00:10:59;;;;;;;5.85;1.40;;;;;;;7.24;100.00;99556.00;5123283;27;20057;-70
2024/03/25 00:13:25;;;;;;;8.93;1.55;;;;;;;7.20;100.00;99548.34;5103631;27;20118;-71
2024/03/25 00:15:52;;;;;;;7.00;1.40;;;;;;;7.25;100.00;99554.22;5119730;27;20225;-70
2024/03/25 00:18:18;;;;;;;7.90;2.10;;;;;;;7.24;100.00;99558.63;5121055;27;20130;-71
2024/03/25 00:20:45;;;;;;;7.55;1.73;;;;;;;7.23;100.00;99558.72;5101995;27;20047;-70
2024/03/25 00:23:12;;;;;;;6.53;1.60;;;;;;;7.00;100.00;99525.56;5098104;27;20435;-72
2024/03/25 00:25:38;;;;;;;5.38;1.60;;;;;;;7.20;100.00;99551.81;5116893;27;20144;-74
2024/03/25 00:28:04;;;;;;;9.23;1.60;;;;;;;7.19;100.00;99547.47;5102422;27;20641;-71
2024/03/25 00:30:31;;;;;;;5.93;1.40;;;;;;;7.18;100.00;99553.66;5120529;27;20039;-70
2024/03/25 00:32:57;;;;;;;6.82;1.63;;;;;;;7.19;100.00;99546.63;5099960;27;20130;-71
2024/03/25 00:35:24;;;;;;;5.03;1.52;;;;;;;7.18;100.00;99550.19;5115791;27;20087;-71
2024/03/25 00:37:50;;;;;;;5.82;1.90;;;;;;;7.19;100.00;99539.56;5116483;27;20125;-71
2024/03/25 00:40:18;;;;;;;8.27;1.77;;;;;;;7.21;100.00;99544.78;5089841;27;20123;-71
2024/03/25 00:42:46;;;;;;;6.67;1.77;;;;;;;7.17;100.00;99537.94;5114394;27;20164;-71
2024/03/25 00:45:13;;;;;;;4.85;1.50;;;;;;;7.18;100.00;99551.03;5096303;27;20051;-71
2024/03/25 00:47:39;;;;;;;4.53;1.50;;;;;;;7.18;100.00;99553.66;5105591;27;20127;-73
2024/03/25 00:50:09;;;;;;;9.73;2.00;;;;;;;7.17;100.00;99554.59;5120078;27;20492;-72
2024/03/25 00:52:36;;;;;;;6.68;2.00;;;;;;;7.16;100.00;99557.28;5114126;27;20085;-77
2024/03/25 00:55:04;;;;;;;8.68;1.77;;;;;;;7.09;100.00;99548.81;5096015;27;20070;-71
2024/03/25 00:57:32;;;;;;;3.20;1.65;;;;;;;7.12;100.00;99564.47;5086199;27;20035;-72
2024/03/25 00:59:59;;;;;;;4.95;1.95;;;;;;;7.06;100.00;99537.59;5103599;27;20166;-70
2024/03/25 01:02:27;;;;;;;3.67;1.63;;;;;;;7.16;100.00;99554.66;5104384;27;20122;-70
2024/03/25 01:04:54;;;;;;;4.85;1.58;;;;;;;7.13;100.00;99555.66;5080816;27;20122;-75
2024/03/25 01:07:20;;;;;;;6.95;1.92;;;;;;;7.05;100.00;99547.25;5103780;27;20114;-71
2024/03/25 01:09:47;;;;;;;5.88;1.83;;;;;;;7.08;100.00;99552.41;5103248;27;20544;-71
2024/03/25 01:12:12;;;;;;;7.93;1.70;;;;;;;7.09;100.00;99558.47;5103275;27;20139;-70
2024/03/25 01:14:41;;;;;;;6.38;1.98;;;;;;;7.03;100.00;99554.38;5081918;27;20059;-71
2024/03/25 01:17:08;;;;;;;5.60;1.85;;;;;;;6.96;100.00;99555.56;5118408;27;20528;-71
2024/03/25 01:19:35;;;;;;;7.28;2.00;;;;;;;6.84;100.00;99545.59;5103899;27;20054;-71
2024/03/25 01:22:01;;;;;;;6.53;1.73;;;;;;;6.38;100.00;99475.78;5115766;27;20134;-72
2024/03/25 01:24:27;;;;;;;5.95;1.80;;;;;;;6.77;100.00;99549.44;5117523;27;20111;-72
2024/03/25 01:26:53;;;;;;;7.35;1.70;;;;;;;6.74;100.00;99555.69;5118161;27;20062;-72
2024/03/25 01:29:21;;;;;;;7.13;1.80;;;;;;;6.69;100.00;99555.88;5122439;27;20050;-70
2024/03/25 01:31:49;;;;;;;5.75;1.80;;;;;;;6.65;100.00;99549.06;5085064;27;20126;-70
2024/03/25 01:34:15;;;;;;;7.63;2.15;;;;;;;6.61;100.00;99557.16;5116603;27;20058;-71
2024/03/25 01:36:42;;;;;;;7.50;1.85;;;;;;;6.62;100.00;99561.47;5099389;27;20047;-71
2024/03/25 01:39:10;;;;;;;7.13;1.95;;;;;;;6.50;100.00;99555.00;5117637;27;20162;-71
2024/03/25 01:41:37;;;;;;;7.38;2.05;;;;;;;6.45;100.00;99559.63;5118498;27;20085;-71
2024/03/25 01:44:05;;;;;;;8.02;2.10;;;;;;;6.39;100.00;99549.34;5114225;27;20059;-70
2024/03/25 01:46:30;;;;;;;9.13;2.17;;;;;;;6.49;100.00;99555.06;5118400;27;20066;-71
2024/03/25 01:48:59;;;;;;;8.07;2.05;;;;;;;6.49;100.00;99557.69;5120093;27;20034;-70
2024/03/25 01:51:25;;;;;;;7.40;2.20;;;;;;;6.46;100.00;99545.50;5120974;27;20070;-71
2024/03/25 01:53:53;;;;;;;10.93;1.73;;;;;;;6.50;100.00;99547.09;5104119;27;20412;-75
2024/03/25 01:56:22;;;;;;;8.90;2.30;;;;;;;6.50;100.00;99562.88;5117499;27;20122;-71
2024/03/25 01:58:49;;;;;;;8.10;2.00;;;;;;;6.58;100.00;99565.19;5120299;27;20043;-70
2024/03/25 02:01:15;;;;;;;8.80;2.35;;;;;;;6.58;100.00;99562.56;5104482;27;20069;-71
2024/03/25 02:03:43;;;;;;;7.80;1.98;;;;;;;6.48;100.00;99554.19;5105652;27;20035;-71
2024/03/25 02:06:13;;;;;;;6.28;2.10;;;;;;;6.51;100.00;99555.84;5116941;27;20070;-71
2024/03/25 02:08:42;;;;;;;9.40;2.25;;;;;;;6.58;100.00;99579.19;5121330;27;20505;-71
2024/03/25 02:11:09;;;;;;;6.95;2.25;;;;;;;6.43;100.00;99548.31;5119243;27;20074;-70
2024/03/25 02:13:36;;;;;;;9.02;2.38;;;;;;;6.58;100.00;99579.19;5134348;27;20556;-74
2024/03/25 02:16:02;;;;;;;10.65;2.28;;;;;;;6.54;100.00;99564.47;5121708;27;20055;-73
2024/03/25 02:18:30;;;;;;;11.38;2.80;;;;;;;6.52;100.00;99563.66;5108045;27;20092;-71
2024/03/25 02:20:56;;;;;;;6.10;2.25;;;;;;;6.29;100.00;99534.91;5122916;27;20136;-72
2024/03/25 02:23:25;;;;;;;8.50;2.63;;;;;;;6.39;100.00;99565.13;5116671;27;20146;-70
2024/03/25 02:25:53;;;;;;;6.28;2.38;;;;;;;6.37;100.00;99564.34;5104951;27;20405;-70
2024/03/25 02:28:21;;;;;;;12.00;2.53;;;;;;;6.36;100.00;99572.28;5105695;27;20138;-71
2024/03/25 02:30:47;;;;;;;13.18;2.45;;;;;;;6.36;100.00;99565.25;5125675;27;20071;-70
2024/03/25 02:33:14;;;;;;;10.02;2.15;;;;;;;6.32;100.00;99566.28;5115688;27;20054;-71
2024/03/25 02:35:41;;;;;;;11.25;2.10;;;;;;;6.36;100.00;99569.66;5121589;27;20151;-71
2024/03/25 02:38:09;;;;;;;8.10;2.22;;;;;;;6.36;100.00;99570.50;5103009;27;20062;-70
2024/03/25 02:40:38;;;;;;;13.63;2.92;;;;;;;6.24;100.00;99550.88;5118331;27;20396;-70
2024/03/25 02:43:07;;;;;;;6.28;2.08;;;;;;;6.30;100.00;99560.25;5116328;27;20054;-71
2024/03/25 02:45:33;;;;;;;9.13;2.70;;;;;;;6.30;100.00;99560.25;5103957;27;20062;-70
2024/03/25 02:48:00;;;;;;;8.73;2.63;;;;;;;6.22;100.00;99557.09;5118618;27;20039;-71
2024/03/25 02:50:25;;;;;;;4.03;2.22;;;;;;;6.31;100.00;99564.59;5123827;27;20077;-73
2024/03/25 02:52:53;;;;;;;7.32;2.00;;;;;;;6.29;100.00;99567.31;5119701;27;20039;-70
2024/03/25 02:55:19;;;;;;;10.55;2.40;;;;;;;6.32;100.00;99568.94;5119274;27;20039;-72
2024/03/25 02:57:46;;;;;;;7.65;2.28;;;;;;;6.30;100.00;99576.03;5104095;27;20047;-72
2024/03/25 03:00:14;;;;;;;6.35;2.05;;;;;;;6.29;100.00;99579.59;5103775;27;20496;-73
2024/03/25 03:02:41;;;;;;;10.82;2.67;;;;;;;6.16;100.00;99557.34;5085566;27;20601;-72
2024/03/25 03:05:08;;;;;;;9.43;2.38;;;;;;;6.32;100.00;99579.44;5118987;27;20031;-70
2024/03/25 03:07:34;;;;;;;6.13;2.10;;;;;;;6.30;100.00;99579.50;5121776;27;20131;-71
2024/03/25 03:10:00;;;;;;;5.13;2.25;;;;;;;5.85;100.00;99510.44;5122417;27;20081;-71
2024/03/25 03:12:27;;;;;;;6.03;2.28;;;;;;;6.25;100.00;99588.53;5119987;27;20039;-71
2024/03/25 03:14:53;;;;;;;7.40;2.10;;;;;;;6.20;100.00;99585.22;5115283;27;20126;-71
2024/03/25 03:17:23;;;;;;;4.72;2.00;;;;;;;6.11;100.00;99577.75;5121533;27;20069;-71
2024/03/25 03:19:49;;;;;;;7.75;2.40;;;;;;;6.07;100.00;99574.38;5121122;27;20074;-70
2024/03/25 03:22:16;;;;;;;7.00;2.40;;;;;;;6.02;100.00;99584.22;5121301;27;20043;-73
2024/03/25 03:24:42;;;;;;;9.35;2.72;;;;;;;5.95;100.00;99573.13;5117293;27;20046;-70
2024/03/25 03:27:09;;;;;;;11.85;2.22;;;;;;;5.95;100.00;99581.00;5121750;27;20088;-71
2024/03/25 03:29:34;;;;;;;10.02;3.03;;;;;;;5.92;100.00;99578.50;5122669;27;20071;-71
2024/03/25 03:32:01;;;;;;;6.90;2.22;;;;;;;5.78;100.00;99559.78;5107289;27;20050;-71
2024/03/25 03:34:28;;;;;;;9.10;2.70;;;;;;;5.91;100.00;99582.03;5117911;27;20118;-72
2024/03/25 03:36:55;;;;;;;10.50;2.40;;;;;;;5.77;100.00;99563.31;5121007;27;20750;-72
2024/03/25 03:39:22;;;;;;;8.23;2.63;;;;;;;5.69;100.00;99554.88;5098691;27;20070;-72
2024/03/25 03:41:49;;;;;;;7.60;2.42;;;;;;;5.89;100.00;99583.00;5106621;27;20071;-71
2024/03/25 03:44:15;;;;;;;7.25;2.50;;;;;;;5.75;100.00;99567.78;5102027;27;20479;-72
2024/03/25 03:46:42;;;;;;;6.70;2.10;;;;;;;5.54;100.00;99527.47;5122079;27;20074;-73
2024/03/25 03:49:08;;;;;;;7.82;2.13;;;;;;;5.80;100.00;99560.56;5116586;27;20089;-70
2024/03/25 03:51:36;;;;;;;9.20;2.00;;;;;;;5.89;100.00;99580.38;5118902;27;20514;-72
2024/03/25 03:54:02;;;;;;;11.23;2.55;;;;;;;5.89;100.00;99586.50;5117309;27;20601;-71
2024/03/25 03:56:30;;;;;;;8.77;2.63;;;;;;;5.85;100.00;99573.50;5119468;27;20039;-71
2024/03/25 03:58:56;;;;;;;6.45;2.22;;;;;;;5.86;100.00;99575.22;5101631;27;20142;-72
2024/03/25 04:01:23;;;;;;;7.82;2.10;;;;;;;5.85;100.00;99578.75;5121676;27;20035;-71
2024/03/25 04:03:49;;;;;;;4.97;1.98;;;;;;;5.85;100.00;99590.13;5118892;27;20058;-71
2024/03/25 04:06:16;;;;;;;11.93;2.65;;;;;;;5.79;100.00;99584.28;5120552;27;20489;-71
2024/03/25 04:08:43;;;;;;;11.57;2.85;;;;;;;5.65;100.00;99592.72;5122333;27;20036;-73
2024/03/25 04:11:11;;;;;;;12.02;2.55;;;;;;;5.42;100.00;99569.13;5123155;27;20069;-71
2024/03/25 04:13:37;;;;;;;11.88;3.17;;;;;;;5.51;100.00;99598.47;5116654;27;20500;-72
2024/03/25 04:16:07;;;;;;;9.77;2.80;;;;;;;5.52;100.00;99587.06;5120876;27;20519;-71
2024/03/25 04:18:34;;;;;;;7.25;2.33;;;;;;;5.52;100.00;99588.84;5118649;27;20123;-71
2024/03/25 04:21:01;;;;;;;5.82;2.28;;;;;;;5.44;100.00;99578.66;5104925;27;20555;-71
2024/03/25 04:23:27;;;;;;;10.45;2.60;;;;;;;5.43;100.00;99594.47;5102765;27;20139;-71
2024/03/25 04:25:55;;;;;;;13.70;2.53;;;;;;;5.44;100.00;99589.16;5087092;27;20057;-71
2024/03/25 04:28:22;;;;;;;3.53;2.13;;;;;;;5.35;100.00;99565.91;5119347;27;20466;-71
2024/03/25 04:30:53;;;;;;;7.90;2.47;;;;;;;5.38;100.00;99573.63;5102055;28;20118;-70
2024/03/25 04:33:19;;;;;;;7.45;2.42;;;;;;;5.39;100.00;99574.47;5118855;27;20043;-71
2024/03/25 04:35:46;;;;;;;7.07;2.28;;;;;;;5.50;100.00;99590.69;5117215;27;20047;-70
